Time;durP1;ratioP1;P1;durP2;ratioP2;P2;SDS_P1;SDS_P2;PMS_P1;PMS_P2;Temp;Humidity;BMP_temperature;BMP_pressure;BME280_temperature;BME280_humidity;BME280_pressure;Samples;Min_cycle;Max_cycle;Signal;HPM_P1;HPM_P2
2023/03/11 00:02:25;;;;;;;2.17;1.30;;;18.30;51.20;;;;;;6277022;28;20052;-73
2023/03/11 00:05:28;;;;;;;1.40;1.20;;;18.30;51.00;;;;;;6277073;28;20024;-72
2023/03/11 00:08:30;;;;;;;1.23;1.13;;;18.30;51.00;;;;;;6295145;28;20389;-73
2023/03/11 00:11:30;;;;;;;1.92;1.30;;;18.30;51.10;;;;;;6276690;28;20048;-74
2023/03/11 00:14:31;;;;;;;1.33;1.13;;;18.30;51.20;;;;;;6294795;28;20020;-74
2023/03/11 00:17:32;;;;;;;1.40;1.27;;;18.30;51.00;;;;;;6294829;28;20033;-72
2023/03/11 00:20:35;;;;;;;1.77;1.38;;;18.30;51.20;;;;;;6276079;28;20512;-72
2023/03/11 00:23:36;;;;;;;1.83;1.30;;;18.30;51.10;;;;;;6294729;28;20100;-72
2023/03/11 00:26:37;;;;;;;1.90;1.50;;;18.30;51.10;;;;;;6276495;28;20036;-72
2023/03/11 00:29:37;;;;;;;1.38;1.27;;;18.30;50.90;;;;;;6294268;28;20059;-72
2023/03/11 00:32:38;;;;;;;2.50;1.33;;;18.30;51.10;;;;;;6287090;28;20413;-72
2023/03/11 00:35:40;;;;;;;1.48;1.13;;;18.30;51.10;;;;;;6294679;28;20031;-72
2023/03/11 00:38:40;;;;;;;1.45;1.27;;;18.30;51.10;;;;;;6276266;28;20036;-72
2023/03/11 00:41:41;;;;;;;2.17;1.48;;;18.30;51.10;;;;;;6293893;28;20362;-72
2023/03/11 00:44:42;;;;;;;1.65;1.20;;;18.30;51.00;;;;;;6275462;28;20021;-73
2023/03/11 00:47:43;;;;;;;1.20;1.05;;;18.30;51.00;;;;;;6275905;28;20108;-73
2023/03/11 00:50:44;;;;;;;2.53;1.55;;;18.30;50.90;;;;;;6276098;28;20024;-72
2023/03/11 00:53:44;;;;;;;1.20;1.10;;;18.30;50.90;;;;;;6276230;28;20033;-72
2023/03/11 00:56:45;;;;;;;1.67;1.23;;;18.30;51.10;;;;;;6276254;28;20512;-73
2023/03/11 00:59:46;;;;;;;1.63;1.23;;;18.30;50.90;;;;;;6275834;28;20025;-73
2023/03/11 01:02:46;;;;;;;1.45;1.33;;;18.30;51.10;;;;;;6293471;28;20020;-72
2023/03/11 01:05:47;;;;;;;2.17;1.30;;;18.30;50.90;;;;;;6293396;28;20032;-72
2023/03/11 01:08:48;;;;;;;1.85;1.30;;;18.30;50.90;;;;;;6294192;28;20016;-72
2023/03/11 01:11:49;;;;;;;1.98;1.45;;;18.30;51.10;;;;;;6292616;28;20083;-72
2023/03/11 01:14:49;;;;;;;1.30;1.05;;;18.30;50.90;;;;;;6275250;28;20024;-72
2023/03/11 01:17:50;;;;;;;1.23;1.10;;;18.30;51.00;;;;;;6293552;28;20477;-72
2023/03/11 01:20:51;;;;;;;1.50;1.20;;;18.30;50.90;;;;;;6274965;28;20040;-73
2023/03/11 01:23:52;;;;;;;1.85;1.25;;;18.30;50.90;;;;;;6293309;28;20478;-73
2023/03/11 01:26:53;;;;;;;1.77;1.40;;;18.30;50.90;;;;;;6269321;28;20082;-72
2023/03/11 01:29:54;;;;;;;1.67;1.20;;;18.30;50.90;;;;;;6274694;28;20548;-72
2023/03/11 01:32:56;;;;;;;1.40;1.10;;;18.30;51.00;;;;;;6275367;28;20035;-72
2023/03/11 01:35:56;;;;;;;1.65;1.20;;;18.30;50.90;;;;;;6267179;28;20029;-73
2023/03/11 01:38:57;;;;;;;1.40;1.25;;;18.30;51.00;;;;;;6268331;28;20032;-72
2023/03/11 01:41:58;;;;;;;1.25;1.10;;;18.30;50.80;;;;;;6252291;28;20363;-73
2023/03/11 01:45:01;;;;;;;1.17;1.08;;;18.30;51.00;;;;;;6255726;28;20029;-72
2023/03/11 01:48:02;;;;;;;1.52;1.10;;;18.30;51.00;;;;;;6287026;28;20086;-72
2023/03/11 01:51:04;;;;;;;1.38;1.20;;;18.30;51.00;;;;;;6280248;28;20603;-73
2023/03/11 01:54:09;;;;;;;1.10;1.00;;;18.30;50.80;;;;;;6298144;28;20028;-72
2023/03/11 01:57:12;;;;;;;1.23;1.10;;;18.30;50.90;;;;;;6297983;28;20031;-72
2023/03/11 02:00:17;;;;;;;1.63;1.10;;;18.30;50.80;;;;;;6280049;28;20062;-72
2023/03/11 02:03:29;;;;;;;1.50;1.20;;;18.30;50.90;;;;;;6277631;28;20078;-72
2023/03/11 02:06:31;;;;;;;1.13;1.00;;;18.30;50.80;;;;;;6279633;28;20032;-72
2023/03/11 02:09:32;;;;;;;1.60;1.20;;;18.30;50.70;;;;;;6297639;28;20016;-72
2023/03/11 02:12:35;;;;;;;1.33;1.10;;;18.30;50.90;;;;;;6279659;28;20103;-73
2023/03/11 02:15:36;;;;;;;2.05;1.08;;;18.30;50.90;;;;;;6297467;28;20025;-72
2023/03/11 02:18:37;;;;;;;1.02;0.90;;;18.30;50.90;;;;;;6297432;28;20060;-73
2023/03/11 02:21:38;;;;;;;2.15;1.13;;;18.30;50.90;;;;;;6298041;28;20040;-73
2023/03/11 02:24:49;;;;;;;1.42;1.10;;;18.30;50.90;;;;;;6297960;28;20052;-73
2023/03/11 02:27:52;;;;;;;1.70;1.20;;;18.20;50.80;;;;;;6277593;28;20051;-73
2023/03/11 02:30:55;;;;;;;1.15;1.05;;;18.30;50.80;;;;;;6295819;28;20029;-72
2023/03/11 02:33:59;;;;;;;0.82;0.82;;;18.30;50.80;;;;;;6277423;28;20035;-73
2023/03/11 02:37:05;;;;;;;1.27;1.10;;;18.30;50.80;;;;;;6295849;28;20021;-72
2023/03/11 02:40:21;;;;;;;1.00;0.90;;;18.30;50.80;;;;;;6277421;28;20567;-73
2023/03/11 02:43:26;;;;;;;1.38;1.00;;;18.30;50.80;;;;;;6277272;28;20022;-72
2023/03/11 02:46:27;;;;;;;1.40;1.00;;;18.30;50.70;;;;;;6295455;28;20673;-73
2023/03/11 02:49:29;;;;;;;1.52;1.05;;;18.30;50.70;;;;;;6277231;28;20047;-72
2023/03/11 02:52:32;;;;;;;1.20;1.05;;;18.30;50.70;;;;;;6276668;28;20016;-72
2023/03/11 02:55:33;;;;;;;1.40;1.00;;;18.30;50.60;;;;;;6295613;28;20478;-72
2023/03/11 02:58:35;;;;;;;1.10;0.80;;;18.30;50.40;;;;;;6295647;28;20020;-73
2023/03/11 03:01:35;;;;;;;0.80;0.70;;;18.20;50.60;;;;;;6296420;28;20389;-71
2023/03/11 03:04:36;;;;;;;1.25;1.00;;;18.30;50.70;;;;;;6274536;28;20025;-73
2023/03/11 03:07:37;;;;;;;1.20;0.80;;;18.30;50.60;;;;;;6277371;28;20937;-73
2023/03/11 03:10:38;;;;;;;1.13;0.90;;;18.20;50.60;;;;;;6277002;28;20021;-73
2023/03/11 03:13:38;;;;;;;1.00;0.75;;;18.30;50.60;;;;;;6277665;28;20024;-73
2023/03/11 03:16:39;;;;;;;1.10;0.95;;;18.30;50.60;;;;;;6277147;28;20074;-73
2023/03/11 03:19:40;;;;;;;0.95;0.80;;;18.30;50.60;;;;;;6277467;28;20028;-71
2023/03/11 03:22:41;;;;;;;1.00;0.90;;;18.30;50.60;;;;;;6295779;28;20028;-70
2023/03/11 03:25:43;;;;;;;1.13;0.93;;;18.30;50.60;;;;;;6248815;28;1325738;-73
2023/03/11 03:28:44;;;;;;;0.70;0.70;;;18.30;50.50;;;;;;6278025;28;20039;-73
2023/03/11 03:31:45;;;;;;;0.90;0.73;;;18.30;50.60;;;;;;6295864;28;20342;-73
2023/03/11 03:34:46;;;;;;;0.82;0.82;;;18.20;50.50;;;;;;6278073;28;20028;-73
2023/03/11 03:37:46;;;;;;;0.70;0.70;;;18.20;50.50;;;;;;6277629;28;20107;-72
2023/03/11 03:40:47;;;;;;;1.00;0.70;;;18.30;50.50;;;;;;6277704;28;20027;-72
2023/03/11 03:43:48;;;;;;;1.05;0.90;;;18.30;50.60;;;;;;6273808;28;20413;-72
2023/03/11 03:46:50;;;;;;;1.02;0.82;;;18.30;50.50;;;;;;6276292;28;20028;-73
2023/03/11 03:49:50;;;;;;;1.10;0.90;;;18.30;50.60;;;;;;6277249;28;20056;-72
2023/03/11 03:52:51;;;;;;;1.40;0.70;;;18.20;50.50;;;;;;6295098;28;20377;-73
2023/03/11 03:55:53;;;;;;;0.85;0.75;;;18.30;50.50;;;;;;6295147;28;20036;-73
2023/03/11 03:58:54;;;;;;;0.85;0.65;;;18.20;50.50;;;;;;6277194;28;20031;-72
2023/03/11 04:01:54;;;;;;;0.93;0.70;;;18.20;50.50;;;;;;6277192;28;20052;-71
2023/03/11 04:04:55;;;;;;;1.27;0.90;;;18.20;50.50;;;;;;6294147;28;20474;-73
2023/03/11 04:07:56;;;;;;;0.70;0.70;;;18.20;50.50;;;;;;6295049;28;20040;-72
2023/03/11 04:10:57;;;;;;;1.15;0.90;;;18.30;50.50;;;;;;6276644;28;20051;-72
2023/03/11 04:13:58;;;;;;;0.65;0.63;;;18.20;50.40;;;;;;6276682;28;20024;-73
2023/03/11 04:16:58;;;;;;;0.77;0.77;;;18.20;50.50;;;;;;6277139;28;20060;-72
2023/03/11 04:19:59;;;;;;;0.98;0.80;;;18.20;50.40;;;;;;6294450;28;20021;-72
2023/03/11 04:23:00;;;;;;;0.85;0.80;;;18.20;50.50;;;;;;6268434;28;20120;-72
2023/03/11 04:26:01;;;;;;;0.90;0.85;;;18.20;50.50;;;;;;6302399;28;20048;-73
2023/03/11 04:29:02;;;;;;;1.02;0.80;;;18.20;50.50;;;;;;6319572;28;20035;-72
2023/03/11 04:32:03;;;;;;;2.28;0.90;;;18.20;50.50;;;;;;6301471;28;20024;-72
2023/03/11 04:35:04;;;;;;;0.60;0.60;;;18.20;50.40;;;;;;6304889;28;20556;-72
2023/03/11 04:38:05;;;;;;;1.17;0.80;;;18.20;50.40;;;;;;6276214;28;20024;-72
2023/03/11 04:41:06;;;;;;;1.05;0.75;;;18.20;50.40;;;;;;6294002;28;20046;-72
2023/03/11 04:44:07;;;;;;;0.60;0.60;;;18.20;50.50;;;;;;6294069;28;20101;-72
2023/03/11 04:47:08;;;;;;;1.38;0.88;;;18.20;50.20;;;;;;6275758;28;20020;-73
2023/03/11 04:50:09;;;;;;;1.45;0.50;;;18.20;50.40;;;;;;6275825;28;21794;-73
2023/03/11 04:53:10;;;;;;;1.25;0.80;;;18.20;50.40;;;;;;6294036;28;20097;-72
2023/03/11 04:56:10;;;;;;;1.42;0.85;;;18.20;50.40;;;;;;6276285;28;20044;-72
2023/03/11 05:03:08;;;;;;;2.05;1.10;;;18.20;50.50;;;;;;6269143;28;20025;-72
2023/03/11 05:06:09;;;;;;;2.38;1.00;;;18.20;50.40;;;;;;6269022;28;20036;-73
2023/03/11 05:09:09;;;;;;;3.95;1.90;;;18.20;50.40;;;;;;6250819;28;20021;-73
2023/03/11 05:12:11;;;;;;;2.78;1.30;;;18.20;50.30;;;;;;6288015;28;20021;-72
2023/03/11 05:15:12;;;;;;;2.58;1.33;;;18.20;50.40;;;;;;6275962;28;20047;-72
2023/03/11 05:18:14;;;;;;;2.78;1.52;;;18.20;50.40;;;;;;6275575;28;20379;-72
2023/03/11 05:21:15;;;;;;;4.13;1.50;;;18.20;50.40;;;;;;6275272;28;20031;-75
2023/03/11 05:24:16;;;;;;;7.60;2.08;;;18.20;50.50;;;;;;6292711;28;20508;-72
2023/03/11 05:27:16;;;;;;;5.75;1.55;;;18.20;50.40;;;;;;6293472;28;20016;-72
2023/03/11 05:30:17;;;;;;;4.70;1.60;;;18.20;50.40;;;;;;6275017;28;20032;-71
2023/03/11 05:33:18;;;;;;;8.40;2.33;;;18.20;50.40;;;;;;6275324;28;20048;-72
2023/03/11 05:36:19;;;;;;;7.68;2.22;;;18.20;50.40;;;;;;6293211;28;20016;-72
2023/03/11 05:39:19;;;;;;;8.15;2.30;;;18.20;50.40;;;;;;6275392;28;20020;-72
2023/03/11 05:42:20;;;;;;;9.55;1.90;;;18.20;50.50;;;;;;6292740;28;20040;-75
2023/03/11 05:45:20;;;;;;;8.68;2.28;;;18.20;50.40;;;;;;6275069;28;20037;-72
2023/03/11 05:48:21;;;;;;;8.60;2.20;;;18.20;50.50;;;;;;6275109;28;20025;-72
2023/03/11 05:51:22;;;;;;;10.88;2.42;;;18.20;50.40;;;;;;6292825;28;20397;-73
2023/03/11 05:54:22;;;;;;;10.23;2.47;;;18.20;50.50;;;;;;6274951;28;20035;-72
2023/03/11 05:57:23;;;;;;;11.50;2.67;;;18.20;50.40;;;;;;6293172;28;20370;-72
2023/03/11 06:00:28;;;;;;;8.75;2.25;;;18.20;50.40;;;;;;6274719;28;20040;-72
2023/03/11 06:03:28;;;;;;;7.47;1.90;;;18.20;50.40;;;;;;6266980;28;20036;-72
2023/03/11 06:06:30;;;;;;;7.03;1.95;;;18.20;50.40;;;;;;6250068;28;20021;-72
2023/03/11 06:09:30;;;;;;;8.95;1.95;;;18.20;50.20;;;;;;6250127;28;20032;-73
2023/03/11 06:12:33;;;;;;;8.80;2.33;;;18.20;50.30;;;;;;6267685;28;20017;-72
2023/03/11 06:15:34;;;;;;;7.72;2.30;;;18.20;50.30;;;;;;6250309;28;20029;-72
2023/03/11 06:18:35;;;;;;;6.90;1.92;;;18.20;50.30;;;;;;6250101;28;20045;-72
2023/03/11 06:21:36;;;;;;;9.10;2.35;;;18.20;50.30;;;;;;6255224;28;20036;-72
2023/03/11 06:24:36;;;;;;;9.10;2.38;;;18.20;50.20;;;;;;6292069;28;20692;-72
2023/03/11 06:27:37;;;;;;;7.20;2.20;;;18.20;50.20;;;;;;6275593;28;20048;-72
2023/03/11 06:30:38;;;;;;;6.50;2.17;;;18.20;50.30;;;;;;6278882;28;20593;-71
2023/03/11 06:33:38;;;;;;;9.55;2.33;;;18.30;50.60;;;;;;6297036;28;20413;-72
2023/03/11 06:36:39;;;;;;;6.47;2.28;;;18.20;50.70;;;;;;6297067;28;20024;-72
2023/03/11 06:39:40;;;;;;;6.38;2.08;;;18.30;50.80;;;;;;6279081;28;20024;-73
2023/03/11 06:42:40;;;;;;;7.07;2.50;;;18.30;50.90;;;;;;6296875;28;20559;-72
2023/03/11 06:45:41;;;;;;;10.10;2.60;;;18.30;51.00;;;;;;6278723;28;20393;-73
2023/03/11 06:48:42;;;;;;;4.82;1.70;;;18.30;51.00;;;;;;6278580;28;20033;-73
2023/03/11 06:51:43;;;;;;;6.32;1.90;;;18.30;51.00;;;;;;6295224;28;20052;-72
2023/03/11 06:54:44;;;;;;;6.53;2.35;;;18.30;51.00;;;;;;6278401;28;20021;-72
2023/03/11 06:57:45;;;;;;;9.75;2.45;;;18.30;50.90;;;;;;6296578;28;20028;-72
2023/03/11 07:00:45;;;;;;;6.32;2.38;;;18.30;50.80;;;;;;6296283;28;20138;-73
2023/03/11 07:03:48;;;;;;;7.47;2.15;;;18.20;50.80;;;;;;6278059;28;20024;-73
2023/03/11 07:06:49;;;;;;;5.80;1.90;;;18.30;50.90;;;;;;6296300;28;20025;-72
2023/03/11 07:09:49;;;;;;;6.97;1.80;;;18.20;51.30;;;;;;6296714;28;20021;-72
2023/03/11 07:12:50;;;;;;;5.78;1.55;;;18.20;50.70;;;;;;6278274;28;20033;-72
2023/03/11 07:16:09;;;;;;;3.92;1.88;;;18.20;50.70;;;;;;6296173;28;20047;-72
2023/03/11 07:19:11;;;;;;;4.75;1.45;;;18.20;50.60;;;;;;6296025;28;20032;-74
2023/03/11 07:22:11;;;;;;;3.50;1.55;;;18.20;50.20;;;;;;6278343;28;20111;-73
2023/03/11 07:25:12;;;;;;;5.72;1.92;;;18.20;50.60;;;;;;6295588;28;20404;-72
2023/03/11 07:28:13;;;;;;;3.00;1.52;;;18.20;50.70;;;;;;6277884;28;20143;-72
2023/03/11 07:31:16;;;;;;;3.03;1.35;;;18.20;50.50;;;;;;6278302;28;20017;-72
2023/03/11 07:34:17;;;;;;;3.80;1.60;;;18.20;50.40;;;;;;6295680;28;20089;-72
2023/03/11 07:37:18;;;;;;;3.28;1.70;;;18.30;50.50;;;;;;6277833;28;20032;-73
2023/03/11 07:40:19;;;;;;;3.10;1.30;;;18.20;50.40;;;;;;6294540;28;20024;-72
2023/03/11 07:43:19;;;;;;;3.88;1.70;;;18.20;50.50;;;;;;6277880;28;20021;-71
2023/03/11 07:46:21;;;;;;;4.05;1.55;;;18.30;50.50;;;;;;6295734;28;20103;-72
2023/03/11 07:49:23;;;;;;;2.95;1.50;;;18.20;50.40;;;;;;6277780;28;20360;-72
2023/03/11 07:52:23;;;;;;;3.33;1.52;;;18.20;50.40;;;;;;6277724;28;20016;-72
2023/03/11 07:55:24;;;;;;;3.38;1.60;;;18.20;50.40;;;;;;6295366;28;20486;-72
2023/03/11 07:58:25;;;;;;;3.38;1.42;;;18.20;50.40;;;;;;6277295;28;20090;-73
2023/03/11 08:01:39;;;;;;;2.50;1.40;;;18.20;50.40;;;;;;6295174;28;20635;-73
2023/03/11 08:04:40;;;;;;;3.42;1.48;;;18.20;50.50;;;;;;6268754;28;20037;-73
2023/03/11 08:07:42;;;;;;;2.83;1.23;;;18.20;50.30;;;;;;6269919;28;20090;-72
2023/03/11 08:10:42;;;;;;;2.80;1.38;;;18.20;50.40;;;;;;6276109;28;20082;-72
2023/03/11 08:13:45;;;;;;;3.20;1.50;;;18.20;50.40;;;;;;6276635;28;20059;-72
2023/03/11 08:16:45;;;;;;;2.47;1.30;;;18.20;50.40;;;;;;6276752;28;20522;-72
2023/03/11 08:19:48;;;;;;;5.35;1.65;;;18.20;50.30;;;;;;6276330;28;20074;-71
2023/03/11 08:22:49;;;;;;;2.75;1.30;;;18.20;50.20;;;;;;6276731;28;20055;-72
2023/03/11 08:25:49;;;;;;;3.20;1.55;;;18.20;50.20;;;;;;6268130;28;20037;-73
2023/03/11 08:28:50;;;;;;;3.28;1.45;;;18.20;50.30;;;;;;6274139;28;20024;-72
2023/03/11 08:31:51;;;;;;;2.33;1.27;;;18.20;50.30;;;;;;6276789;28;20016;-72
2023/03/11 08:34:51;;;;;;;4.05;1.50;;;18.20;50.00;;;;;;6294358;28;20020;-72
2023/03/11 08:37:52;;;;;;;2.67;1.40;;;18.20;50.30;;;;;;6276479;28;20440;-72
2023/03/11 08:40:53;;;;;;;3.00;1.30;;;18.20;50.20;;;;;;6294577;28;20058;-72
2023/03/11 08:43:53;;;;;;;4.30;1.20;;;18.20;50.30;;;;;;6293922;28;20024;-72
2023/03/11 08:46:54;;;;;;;1.67;1.17;;;18.20;50.20;;;;;;6275814;28;20025;-72
2023/03/11 08:49:55;;;;;;;3.25;1.23;;;18.20;50.30;;;;;;6275307;28;20389;-72
2023/03/11 08:52:59;;;;;;;2.45;1.30;;;18.20;50.20;;;;;;6275628;28;20021;-72
2023/03/11 08:55:59;;;;;;;2.20;1.33;;;18.20;50.30;;;;;;6293563;28;20024;-72
2023/03/11 08:59:00;;;;;;;2.50;1.23;;;18.20;50.30;;;;;;6275347;28;20579;-72
2023/03/11 09:02:01;;;;;;;2.15;1.05;;;18.20;50.30;;;;;;6275131;28;20116;-74
2023/03/11 09:05:02;;;;;;;1.65;1.00;;;18.20;50.30;;;;;;6293446;28;20028;-72
2023/03/11 09:08:04;;;;;;;1.98;1.05;;;18.20;51.00;;;;;;6293308;28;20096;-72
2023/03/11 09:11:05;;;;;;;1.17;0.90;;;18.20;50.30;;;;;;6275295;28;20047;-72
2023/03/11 09:14:05;;;;;;;2.65;1.05;;;18.20;50.10;;;;;;6275804;28;20035;-70
2023/03/11 09:17:07;;;;;;;1.90;1.30;;;18.20;50.20;;;;;;6294173;28;20428;-72
2023/03/11 09:20:10;;;;;;;1.55;1.20;;;18.20;50.20;;;;;;6294846;28;20021;-72
2023/03/11 09:23:14;;;;;;;3.30;1.25;;;18.20;50.20;;;;;;6275532;28;20032;-72
2023/03/11 09:26:15;;;;;;;1.88;0.90;;;18.20;50.20;;;;;;6293153;28;20622;-72
2023/03/11 09:29:15;;;;;;;1.45;0.85;;;18.20;49.90;;;;;;6293207;28;20021;-72
2023/03/11 09:32:16;;;;;;;2.92;1.67;;;18.20;50.00;;;;;;6293090;28;20536;-72
2023/03/11 09:35:17;;;;;;;1.85;1.10;;;18.20;50.20;;;;;;6292975;28;20032;-72
2023/03/11 09:38:17;;;;;;;1.92;1.00;;;18.20;50.20;;;;;;6293405;28;20033;-72
2023/03/11 09:41:50;;;;;;;1.70;1.10;;;18.20;50.20;;;;;;6292393;28;20155;-72
2023/03/11 09:45:05;;;;;;;1.83;1.20;;;18.20;50.00;;;;;;6275112;28;20079;-72
2023/03/11 09:48:28;;;;;;;2.40;1.00;;;18.20;50.10;;;;;;6267026;28;20028;-72
2023/03/11 09:51:44;;;;;;;1.75;1.00;;;18.20;50.10;;;;;;6284762;28;20021;-72
2023/03/11 09:54:49;;;;;;;2.05;0.80;;;18.20;50.10;;;;;;6275321;28;20088;-72
2023/03/11 09:57:52;;;;;;;1.95;0.95;;;18.20;50.20;;;;;;6292816;28;20464;-72
2023/03/11 10:00:54;;;;;;;2.08;1.10;;;18.20;50.20;;;;;;6291240;28;20033;-72
2023/03/11 10:03:59;;;;;;;1.45;1.00;;;18.20;50.20;;;;;;6277708;28;20396;-72
2023/03/11 10:07:01;;;;;;;;;;;18.20;50.10;;;;;;6280313;28;20021;-72
2023/03/11 10:10:01;;;;;;;2.63;1.00;;;18.20;50.10;;;;;;6279493;28;19957;-71
2023/03/11 10:13:13;;;;;;;1.73;1.25;;;18.20;50.20;;;;;;6285989;28;20016;-72
2023/03/11 10:16:14;;;;;;;2.63;1.13;;;18.20;50.10;;;;;;6287607;28;20036;-71
2023/03/11 10:19:39;;;;;;;4.28;1.10;;;18.20;50.20;;;;;;6280168;28;20028;-71
2023/03/11 10:22:58;;;;;;;;;;;18.20;50.20;;;;;;6321448;28;20024;-71
2023/03/11 10:26:11;;;;;;;5.07;0.93;;;18.20;50.20;;;;;;6303242;28;19916;-72
2023/03/11 10:29:25;;;;;;;5.47;1.48;;;18.20;50.30;;;;;;6278298;28;20115;-71
2023/03/11 10:32:41;;;;;;;2.85;1.33;;;18.20;50.30;;;;;;6252977;28;20021;-71
2023/03/11 10:35:44;;;;;;;2.35;1.10;;;18.20;50.40;;;;;;6281375;28;20055;-71
2023/03/11 10:38:47;;;;;;;1.50;0.98;;;18.20;50.40;;;;;;6301036;28;20027;-72
2023/03/11 10:41:58;;;;;;;2.88;1.00;;;18.20;50.50;;;;;;6320084;28;20027;-71
2023/03/11 10:44:59;;;;;;;2.15;1.00;;;18.30;50.50;;;;;;6320360;28;20073;-71
2023/03/11 10:48:00;;;;;;;1.70;0.80;;;18.20;50.40;;;;;;6319632;28;20077;-71
2023/03/11 10:51:02;;;;;;;2.53;1.15;;;18.30;50.50;;;;;;6284587;28;20033;-71
2023/03/11 10:54:03;;;;;;;1.02;0.80;;;18.30;50.50;;;;;;6252081;28;20112;-71
2023/03/11 10:57:24;;;;;;;1.08;0.88;;;18.30;50.50;;;;;;6294072;28;20397;-71
2023/03/11 11:00:30;;;;;;;2.10;0.90;;;18.30;50.50;;;;;;6313704;28;20549;-71
2023/03/11 11:03:32;;;;;;;1.45;0.80;;;18.20;50.40;;;;;;6277107;28;20036;-72
2023/03/11 11:06:35;;;;;;;1.92;0.90;;;18.20;50.40;;;;;;6275127;28;20016;-71
2023/03/11 11:09:35;;;;;;;5.80;1.65;;;18.30;50.90;;;;;;6295217;28;20025;-72
2023/03/11 11:12:37;;;;;;;7.53;1.92;;;18.30;51.20;;;;;;6311182;28;20074;-71
2023/03/11 11:16:05;;;;;;;8.40;2.15;;;18.40;51.40;;;;;;6275873;28;20078;-71
2023/03/11 11:19:12;;;;;;;7.53;2.03;;;18.40;51.50;;;;;;6274867;28;20016;-71
2023/03/11 11:22:18;;;;;;;10.18;2.20;;;18.50;50.80;;;;;;6301588;28;20021;-72
2023/03/11 11:25:40;;;;;;;8.32;2.00;;;18.50;50.70;;;;;;6276305;28;20115;-72
2023/03/11 11:28:41;;;;;;;7.50;1.60;;;18.40;50.80;;;;;;6301722;28;20397;-72
2023/03/11 11:31:46;;;;;;;4.70;1.45;;;18.40;50.70;;;;;;6298148;28;20035;-72
2023/03/11 11:34:59;;;;;;;8.68;2.15;;;18.40;50.70;;;;;;6289434;28;20438;-71
2023/03/11 11:38:03;;;;;;;5.22;1.67;;;18.40;50.70;;;;;;6280628;28;20512;-71
2023/03/11 11:41:05;;;;;;;4.75;1.85;;;18.40;50.90;;;;;;6293665;28;20043;-71
2023/03/11 11:44:12;;;;;;;8.77;1.73;;;18.40;50.90;;;;;;6275407;28;20497;-72
2023/03/11 11:47:18;;;;;;;4.40;1.50;;;18.40;51.00;;;;;;6279835;28;20450;-72
2023/03/11 11:50:24;;;;;;;4.53;1.70;;;18.40;51.10;;;;;;6275796;28;20087;-72
2023/03/11 11:53:43;;;;;;;3.40;1.55;;;18.40;51.30;;;;;;6279503;28;20049;-72
2023/03/11 11:56:44;;;;;;;6.47;1.80;;;18.40;51.30;;;;;;6293260;28;20055;-72
2023/03/11 11:59:46;;;;;;;3.40;1.50;;;18.40;51.20;;;;;;6285098;28;20074;-71
2023/03/11 12:03:25;;;;;;;7.95;1.85;;;18.40;51.20;;;;;;6273963;28;20074;-71
2023/03/11 12:06:43;;;;;;;7.15;1.70;;;18.40;51.30;;;;;;6295452;28;20678;-72
2023/03/11 12:10:22;;;;;;;9.65;2.15;;;18.40;50.90;;;;;;6250425;28;20027;-72
2023/03/11 12:14:00;;;;;;;17.27;1.90;;;18.40;51.80;;;;;;6284953;28;20519;-74
2023/03/11 12:17:03;;;;;;;27.83;3.42;;;18.40;51.10;;;;;;6274225;28;20719;-72
2023/03/11 12:20:10;;;;;;;25.05;2.58;;;18.40;51.10;;;;;;6273338;28;20025;-72
2023/03/11 12:23:23;;;;;;;17.30;2.00;;;18.40;51.10;;;;;;6270075;28;20444;-72
2023/03/11 12:26:27;;;;;;;17.70;2.28;;;18.40;51.10;;;;;;6273864;28;20486;-72
2023/03/11 12:29:33;;;;;;;9.25;2.10;;;18.40;51.00;;;;;;6266354;28;20021;-72
2023/03/11 12:32:42;;;;;;;6.70;1.92;;;18.40;51.10;;;;;;6273740;28;20094;-72
2023/03/11 12:35:49;;;;;;;16.55;2.00;;;18.40;51.10;;;;;;6272256;28;20021;-72
2023/03/11 12:38:51;;;;;;;9.85;2.13;;;18.40;51.00;;;;;;6290038;28;20111;-72
2023/03/11 12:42:10;;;;;;;7.43;1.85;;;18.40;51.00;;;;;;6298730;28;20059;-72
2023/03/11 12:45:59;;;;;;;6.47;1.55;;;18.40;51.00;;;;;;6274520;28;20036;-72
2023/03/11 12:49:13;;;;;;;7.07;2.33;;;18.40;51.00;;;;;;6288385;28;20040;-69
2023/03/11 12:52:27;;;;;;;6.50;1.70;;;18.40;50.90;;;;;;6275945;28;20031;-73
2023/03/11 12:55:33;;;;;;;7.90;1.60;;;18.40;50.90;;;;;;6270886;28;20536;-75
2023/03/11 12:58:52;;;;;;;11.45;1.80;;;18.40;51.00;;;;;;6278040;28;20032;-73
2023/03/11 13:02:16;;;;;;;19.15;2.03;;;18.40;51.20;;;;;;6292033;28;20113;-73
2023/03/11 13:05:18;;;;;;;7.00;1.90;;;18.40;50.90;;;;;;6285366;28;20481;-76
2023/03/11 13:08:22;;;;;;;3.85;1.40;;;18.40;51.00;;;;;;6293265;28;20020;-73
2023/03/11 13:11:33;;;;;;;12.95;2.13;;;18.40;51.00;;;;;;6293393;28;20150;-73
2023/03/11 13:14:34;;;;;;;7.22;1.80;;;18.40;51.00;;;;;;6306062;28;20028;-74
2023/03/11 13:17:35;;;;;;;4.32;1.38;;;18.40;50.90;;;;;;6289485;28;20809;-72
2023/03/11 13:20:43;;;;;;;5.07;1.50;;;18.40;50.90;;;;;;6286832;28;20029;-74
2023/03/11 13:23:44;;;;;;;6.00;1.80;;;18.40;50.90;;;;;;6303459;28;20066;-73
2023/03/11 13:26:59;;;;;;;8.77;1.60;;;18.40;50.90;;;;;;6281134;28;20044;-73
2023/03/11 13:30:16;;;;;;;6.72;1.50;;;18.40;50.90;;;;;;6276472;28;20024;-73
2023/03/11 13:33:18;;;;;;;5.25;1.90;;;18.40;51.00;;;;;;6277228;28;20033;-74
2023/03/11 13:36:33;;;;;;;13.13;5.65;;;18.40;51.00;;;;;;6294309;28;20020;-73
2023/03/11 13:40:15;;;;;;;13.57;5.72;;;18.40;50.90;;;;;;6310440;28;20024;-73
2023/03/11 13:43:22;;;;;;;10.43;4.47;;;18.30;50.90;;;;;;6241947;28;20368;-73
2023/03/11 13:46:38;;;;;;;11.50;6.07;;;18.30;50.90;;;;;;6244745;28;20034;-72
2023/03/11 13:50:13;;;;;;;9.63;4.32;;;18.40;50.60;;;;;;6303008;28;20024;-73
2023/03/11 13:53:24;;;;;;;9.95;4.80;;;18.40;50.80;;;;;;6297424;28;20070;-74
2023/03/11 13:56:28;;;;;;;6.60;4.32;;;18.40;50.40;;;;;;6314663;28;20016;-73
2023/03/11 13:59:33;;;;;;;9.57;4.35;;;18.40;50.40;;;;;;6318985;28;20083;-73
2023/03/11 14:02:34;;;;;;;8.50;4.05;;;18.30;49.90;;;;;;6310789;28;20029;-74
2023/03/11 14:05:40;;;;;;;9.15;4.20;;;18.40;50.30;;;;;;6289761;28;20098;-75
2023/03/11 14:08:42;;;;;;;8.82;3.95;;;18.40;50.40;;;;;;6307571;28;20113;-73
2023/03/11 14:11:46;;;;;;;7.00;2.97;;;18.40;50.40;;;;;;6319994;28;20055;-73
2023/03/11 14:14:56;;;;;;;6.87;3.07;;;18.40;50.00;;;;;;6309127;28;20024;-73
2023/03/11 14:18:29;;;;;;;6.10;3.22;;;18.40;50.10;;;;;;6304053;28;20066;-75
2023/03/11 14:21:32;;;;;;;6.75;3.08;;;18.40;50.10;;;;;;6300202;28;20123;-74
2023/03/11 14:24:32;;;;;;;4.05;2.63;;;18.40;50.30;;;;;;6316606;28;20070;-73
2023/03/11 14:27:34;;;;;;;4.13;2.75;;;18.40;50.40;;;;;;6298226;28;20390;-76
2023/03/11 14:30:34;;;;;;;7.60;3.25;;;18.40;50.40;;;;;;6286704;28;20481;-69
2023/03/11 14:33:42;;;;;;;4.38;2.10;;;18.40;50.50;;;;;;6293522;28;20048;-74
2023/03/11 14:36:53;;;;;;;4.72;2.50;;;18.40;50.60;;;;;;6297644;28;20024;-69
2023/03/11 14:39:53;;;;;;;4.53;2.50;;;18.40;50.50;;;;;;6287991;28;20021;-69
2023/03/11 14:43:01;;;;;;;3.60;2.25;;;18.40;50.60;;;;;;6278099;28;20043;-69
2023/03/11 14:46:04;;;;;;;4.93;2.47;;;18.40;50.70;;;;;;6305780;28;20017;-76
2023/03/11 14:49:11;;;;;;;4.18;2.25;;;18.30;50.60;;;;;;6295155;28;20107;-74
2023/03/11 14:52:28;;;;;;;3.97;2.35;;;18.40;50.70;;;;;;6296475;28;20021;-74
2023/03/11 14:55:39;;;;;;;4.45;2.25;;;18.40;50.70;;;;;;6295470;28;20037;-74
2023/03/11 14:58:43;;;;;;;5.10;2.17;;;18.40;50.70;;;;;;6302548;28;20485;-75
2023/03/11 15:01:46;;;;;;;10.23;2.30;;;18.40;50.60;;;;;;6294334;28;20099;-75
2023/03/11 15:04:48;;;;;;;5.43;2.47;;;18.40;50.60;;;;;;6272386;28;20614;-75
2023/03/11 15:07:56;;;;;;;4.00;2.08;;;18.40;50.50;;;;;;6305759;28;20529;-75
2023/03/11 15:11:05;;;;;;;4.50;2.25;;;18.40;50.40;;;;;;6279553;28;20110;-75
2023/03/11 15:14:16;;;;;;;3.80;2.20;;;18.40;50.40;;;;;;6315384;28;20020;-73
2023/03/11 15:17:21;;;;;;;3.25;1.70;;;18.40;50.40;;;;;;6293468;28;20024;-74
2023/03/11 15:20:33;;;;;;;5.50;1.88;;;18.40;50.40;;;;;;6294731;28;20029;-74
2023/03/11 15:23:35;;;;;;;3.72;2.00;;;18.40;50.10;;;;;;6269776;28;20585;-74
2023/03/11 15:26:37;;;;;;;5.78;1.80;;;18.40;50.00;;;;;;6278845;28;20080;-74
2023/03/11 15:29:38;;;;;;;3.38;1.75;;;18.40;50.00;;;;;;6293202;28;20016;-73
2023/03/11 15:32:43;;;;;;;3.95;1.80;;;18.40;50.10;;;;;;6276293;28;20111;-74
2023/03/11 15:35:48;;;;;;;5.53;2.13;;;18.40;49.80;;;;;;6294058;28;20549;-74
2023/03/11 15:39:09;;;;;;;4.40;1.88;;;18.40;49.60;;;;;;6293267;28;20087;-73
2023/03/11 15:42:16;;;;;;;4.70;2.15;;;18.40;50.00;;;;;;6275368;28;20639;-74
2023/03/11 15:45:20;;;;;;;2.83;1.70;;;18.40;49.70;;;;;;6319340;28;20020;-74
2023/03/11 15:48:22;;;;;;;5.37;2.10;;;18.40;49.70;;;;;;6279853;28;20082;-73
2023/03/11 15:51:22;;;;;;;14.60;2.47;;;18.50;49.80;;;;;;6300713;28;20103;-74
2023/03/11 15:54:24;;;;;;;7.57;1.95;;;18.50;49.30;;;;;;6319269;28;20032;-73
2023/03/11 15:57:27;;;;;;;8.77;1.88;;;18.40;49.70;;;;;;6319179;28;20027;-74
2023/03/11 16:00:28;;;;;;;8.63;2.65;;;18.40;49.80;;;;;;6299769;28;20023;-73
2023/03/11 16:03:29;;;;;;;7.80;2.30;;;18.40;49.80;;;;;;6298179;28;20401;-73